createdAt,value
2019-02-11T00:00:28.285Z,100.00
2019-02-11T00:02:58.004Z,100.00
2019-02-11T00:05:27.215Z,100.00
2019-02-11T00:07:56.363Z,100.00
2019-02-11T00:10:26.064Z,100.00
2019-02-11T00:12:55.256Z,100.00
2019-02-11T00:15:25.121Z,100.00
2019-02-11T00:17:55.115Z,100.00
2019-02-11T00:20:24.483Z,100.00
2019-02-11T00:22:54.135Z,100.00
2019-02-11T00:25:23.906Z,100.00
2019-02-11T00:27:53.128Z,100.00
2019-02-11T00:30:22.508Z,100.00
2019-02-11T00:32:52.294Z,100.00
2019-02-11T00:35:21.733Z,100.00
2019-02-11T00:37:51.007Z,100.00
2019-02-11T00:40:20.547Z,100.00
2019-02-11T00:42:49.691Z,100.00
2019-02-11T00:45:19.089Z,100.00
2019-02-11T00:47:48.495Z,100.00
2019-02-11T00:50:17.660Z,100.00
2019-02-11T00:52:47.404Z,100.00
2019-02-11T00:55:16.863Z,100.00
2019-02-11T00:57:46.046Z,100.00
2019-02-11T01:00:15.920Z,100.00
2019-02-11T01:02:45.870Z,100.00
2019-02-11T01:05:15.259Z,100.00
2019-02-11T01:07:48.873Z,100.00
2019-02-11T01:10:18.662Z,100.00
2019-02-11T01:12:47.804Z,100.00
2019-02-11T01:15:17.279Z,100.00
2019-02-11T01:17:47.011Z,100.00
2019-02-11T01:20:16.135Z,100.00
2019-02-11T01:22:45.617Z,100.00
2019-02-11T01:25:15.664Z,100.00
2019-02-11T01:27:44.839Z,100.00
2019-02-11T01:30:14.451Z,100.00
2019-02-11T01:32:44.191Z,100.00
2019-02-11T01:35:13.371Z,100.00
2019-02-11T01:37:42.627Z,100.00
2019-02-11T01:40:12.483Z,100.00
2019-02-11T01:45:15.251Z,100.00
2019-02-11T01:47:44.930Z,100.00
2019-02-11T01:50:14.531Z,100.00
2019-02-11T01:52:44.044Z,100.00
2019-02-11T01:55:13.833Z,100.00
2019-02-11T01:57:43.164Z,100.00
2019-02-11T02:00:13.997Z,100.00
2019-02-11T02:02:43.445Z,100.00
2019-02-11T02:05:13.175Z,100.00
2019-02-11T02:07:42.709Z,100.00
2019-02-11T02:10:14.101Z,100.00
2019-02-11T02:12:43.466Z,100.00
2019-02-11T02:15:13.546Z,100.00
2019-02-11T02:17:42.700Z,100.00
2019-02-11T02:20:13.057Z,100.00
2019-02-11T02:22:42.895Z,100.00
2019-02-11T02:25:12.303Z,100.00
2019-02-11T02:27:41.560Z,100.00
2019-02-11T02:30:12.017Z,100.00
2019-02-11T02:32:41.413Z,100.00
2019-02-11T02:35:10.817Z,100.00
2019-02-11T02:37:40.716Z,100.00
2019-02-11T02:40:10.049Z,100.00
2019-02-11T02:42:39.811Z,100.00
2019-02-11T02:45:10.024Z,100.00
2019-02-11T02:47:39.682Z,100.00
2019-02-11T02:50:09.798Z,100.00
2019-02-11T02:52:39.748Z,100.00
2019-02-11T02:55:09.345Z,100.00
2019-02-11T02:57:38.886Z,100.00
2019-02-11T03:00:09.410Z,100.00
2019-02-11T03:02:38.867Z,100.00
2019-02-11T03:05:09.039Z,100.00
2019-02-11T03:07:38.866Z,100.00
2019-02-11T03:10:08.418Z,100.00
2019-02-11T03:12:38.051Z,100.00
2019-02-11T03:15:08.570Z,100.00
2019-02-11T03:17:37.938Z,100.00
2019-02-11T03:20:07.656Z,100.00
2019-02-11T03:22:37.360Z,100.00
2019-02-11T03:25:06.813Z,100.00
2019-02-11T03:27:36.128Z,100.00
2019-02-11T03:30:06.427Z,100.00
2019-02-11T03:32:35.951Z,100.00
2019-02-11T03:35:05.571Z,100.00
2019-02-11T03:37:35.539Z,100.00
2019-02-11T03:40:05.215Z,100.00
2019-02-11T03:42:35.003Z,100.00
2019-02-11T03:45:05.597Z,100.00
2019-02-11T03:47:34.995Z,100.00
2019-02-11T03:50:04.848Z,100.00
2019-02-11T03:52:34.756Z,100.00
2019-02-11T03:55:04.543Z,100.00
2019-02-11T03:57:33.877Z,100.00
2019-02-11T04:00:04.301Z,100.00
2019-02-11T04:02:33.835Z,100.00
2019-02-11T04:05:03.083Z,100.00
2019-02-11T04:07:32.729Z,100.00
2019-02-11T04:10:02.023Z,100.00
2019-02-11T04:12:31.187Z,100.00
2019-02-11T04:15:00.844Z,100.00
2019-02-11T04:17:30.018Z,100.00
2019-02-11T04:20:11.018Z,100.00
2019-02-11T04:22:40.489Z,100.00
2019-02-11T04:25:09.883Z,100.00
2019-02-11T04:27:39.221Z,100.00
2019-02-11T04:30:08.940Z,100.00
2019-02-11T04:32:38.364Z,100.00
2019-02-11T04:35:08.021Z,100.00
2019-02-11T04:37:37.632Z,100.00
2019-02-11T04:40:07.972Z,100.00
2019-02-11T04:42:37.555Z,100.00
2019-02-11T04:45:08.183Z,100.00
2019-02-11T04:47:37.707Z,100.00
2019-02-11T04:50:08.168Z,100.00
2019-02-11T04:52:38.114Z,100.00
2019-02-11T04:55:07.851Z,100.00
2019-02-11T04:57:37.189Z,100.00
2019-02-11T05:00:08.610Z,100.00
2019-02-11T05:02:37.963Z,100.00
2019-02-11T05:05:08.322Z,100.00
2019-02-11T05:07:38.108Z,100.00
2019-02-11T05:10:09.699Z,100.00
2019-02-11T05:12:39.087Z,100.00
2019-02-11T05:15:09.939Z,100.00
2019-02-11T05:17:39.441Z,100.00
2019-02-11T05:20:09.782Z,100.00
2019-02-11T05:22:43.723Z,100.00
2019-02-11T05:25:13.867Z,100.00
2019-02-11T05:27:44.402Z,100.00
2019-02-11T05:30:14.686Z,100.00
2019-02-11T05:32:44.052Z,100.00
2019-02-11T05:35:14.320Z,100.00
2019-02-11T05:37:44.246Z,100.00
2019-02-11T05:40:14.179Z,100.00
2019-02-11T05:42:44.106Z,100.00
2019-02-11T05:45:13.769Z,100.00
2019-02-11T05:47:43.255Z,100.00
2019-02-11T05:50:13.553Z,100.00
2019-02-11T05:52:43.679Z,100.00
2019-02-11T05:55:13.304Z,100.00
2019-02-11T05:57:42.992Z,100.00
2019-02-11T06:00:12.955Z,100.00
2019-02-11T06:02:42.478Z,100.00
2019-02-11T06:05:12.200Z,100.00
2019-02-11T06:07:41.510Z,100.00
2019-02-11T06:10:11.260Z,100.00
2019-02-11T06:12:41.882Z,100.00
2019-02-11T06:15:11.106Z,100.00
2019-02-11T06:17:40.399Z,100.00
2019-02-11T06:20:10.238Z,100.00
2019-02-11T06:22:39.383Z,100.00
2019-02-11T06:25:10.489Z,100.00
2019-02-11T06:27:40.192Z,100.00
2019-02-11T06:30:09.985Z,100.00
2019-02-11T06:32:54.032Z,100.00
2019-02-11T06:35:24.747Z,100.00
2019-02-11T06:37:53.885Z,100.00
2019-02-11T06:40:23.576Z,100.00
2019-02-11T06:42:53.334Z,100.00
2019-02-11T06:45:22.914Z,100.00
2019-02-11T06:47:52.171Z,100.00
2019-02-11T06:50:22.779Z,100.00
2019-02-11T06:52:52.876Z,100.00
2019-02-11T06:55:22.528Z,100.00
2019-02-11T06:57:52.812Z,100.00
2019-02-11T07:00:22.190Z,100.00
2019-02-11T07:02:51.655Z,100.00
2019-02-11T07:05:21.429Z,100.00
2019-02-11T07:07:50.816Z,100.00
2019-02-11T07:10:20.239Z,100.00
2019-02-11T07:12:50.281Z,100.00
2019-02-11T07:15:22.273Z,100.00
2019-02-11T07:17:49.050Z,100.00
2019-02-11T07:20:18.856Z,100.00
2019-02-11T07:22:48.305Z,100.00
2019-02-11T07:25:18.438Z,100.00
2019-02-11T07:27:48.010Z,100.00
2019-02-11T07:30:17.183Z,100.00
2019-02-11T07:32:46.522Z,100.00
2019-02-11T07:35:16.326Z,100.00
2019-02-11T07:37:45.566Z,100.00
2019-02-11T07:40:15.661Z,100.00
2019-02-11T07:42:57.795Z,100.00
2019-02-11T07:45:31.236Z,100.00
2019-02-11T07:48:00.729Z,100.00
2019-02-11T07:50:30.077Z,100.00
2019-02-11T07:52:59.854Z,100.00
2019-02-11T07:55:29.502Z,100.00
2019-02-11T07:57:58.877Z,100.00
2019-02-11T08:00:28.509Z,100.00
2019-02-11T08:02:58.516Z,100.00
2019-02-11T08:05:28.048Z,100.00
2019-02-11T08:07:57.269Z,100.00
2019-02-11T08:10:27.100Z,100.00
2019-02-11T08:12:56.466Z,100.00
2019-02-11T08:15:25.800Z,100.00
2019-02-11T08:17:55.673Z,100.00
2019-02-11T08:20:25.207Z,100.00
2019-02-11T08:22:55.012Z,100.00
2019-02-11T08:25:24.967Z,100.00
2019-02-11T08:27:54.215Z,100.00
2019-02-11T08:30:23.686Z,100.00
2019-02-11T08:32:53.229Z,100.00
2019-02-11T08:35:22.793Z,100.00
2019-02-11T08:37:52.008Z,100.00
2019-02-11T08:40:21.447Z,100.00
2019-02-11T08:42:51.481Z,100.00
2019-02-11T08:45:20.873Z,100.00
2019-02-11T08:47:50.433Z,100.00
2019-02-11T08:50:20.011Z,100.00
2019-02-11T08:52:49.719Z,100.00
2019-02-11T08:55:20.165Z,100.00
2019-02-11T08:57:49.607Z,100.00
2019-02-11T09:00:19.243Z,100.00
2019-02-11T09:02:48.782Z,100.00
2019-02-11T09:05:18.186Z,100.00
2019-02-11T09:07:47.407Z,100.00
2019-02-11T09:10:18.022Z,100.00
2019-02-11T09:12:47.305Z,100.00
2019-02-11T09:15:16.760Z,100.00
2019-02-11T09:17:46.747Z,100.00
2019-02-11T09:20:15.964Z,100.00
2019-02-11T09:22:45.314Z,100.00
2019-02-11T09:25:15.048Z,100.00
2019-02-11T09:27:44.339Z,100.00
2019-02-11T09:30:14.945Z,100.00
2019-02-11T09:32:45.205Z,99.23
2019-02-11T09:35:14.504Z,97.52
2019-02-11T09:37:43.663Z,97.05
2019-02-11T09:40:13.557Z,96.01
2019-02-11T09:42:42.772Z,95.85
2019-02-11T09:45:14.559Z,94.54
2019-02-11T09:47:43.967Z,93.19
2019-02-11T09:50:20.954Z,91.83
2019-02-11T09:52:50.798Z,92.05
2019-02-11T09:55:23.448Z,92.42
2019-02-11T09:57:52.639Z,92.47
2019-02-11T10:00:22.355Z,93.12
2019-02-11T10:02:51.548Z,91.46
2019-02-11T10:05:20.740Z,91.46
2019-02-11T10:07:50.181Z,90.78
2019-02-11T10:10:20.386Z,89.46
2019-02-11T10:12:49.928Z,89.46
2019-02-11T10:15:19.435Z,89.97
2019-02-11T10:17:48.635Z,90.09
2019-02-11T10:20:18.335Z,89.69
2019-02-11T10:22:47.895Z,89.62
2019-02-11T10:25:19.607Z,88.76
2019-02-11T10:27:49.024Z,90.22
2019-02-11T10:30:18.700Z,90.57
2019-02-11T10:32:47.954Z,91.95
2019-02-11T10:35:17.806Z,92.25
2019-02-11T10:37:47.962Z,92.89
2019-02-11T10:40:17.223Z,92.63
2019-02-11T10:42:46.533Z,92.84
2019-02-11T10:45:16.586Z,93.46
2019-02-11T10:47:46.226Z,94.69
2019-02-11T10:50:16.191Z,94.85
2019-02-11T10:52:45.999Z,95.03
2019-02-11T10:55:16.055Z,94.98
2019-02-11T10:57:45.606Z,95.21
2019-02-11T11:00:18.376Z,96.26
2019-02-11T11:02:47.911Z,96.53
2019-02-11T11:05:17.668Z,96.92
2019-02-11T11:07:46.904Z,98.00
2019-02-11T11:10:19.791Z,97.88
2019-02-11T11:12:49.409Z,96.72
2019-02-11T11:15:19.451Z,96.52
2019-02-11T11:17:48.684Z,96.17
2019-02-11T11:20:18.724Z,96.11
2019-02-11T11:22:47.907Z,96.97
2019-02-11T11:25:17.550Z,97.04
2019-02-11T11:27:48.192Z,97.46
2019-02-11T11:30:17.392Z,98.18
2019-02-11T11:32:47.272Z,98.96
2019-02-11T11:35:16.868Z,99.00
2019-02-11T11:37:46.654Z,99.68
2019-02-11T11:40:17.492Z,100.00
2019-02-11T11:42:47.171Z,100.00
2019-02-11T11:45:17.717Z,100.00
2019-02-11T11:47:48.978Z,100.00
2019-02-11T11:50:18.586Z,100.00
2019-02-11T11:52:47.891Z,100.00
2019-02-11T11:55:17.494Z,100.00
2019-02-11T11:57:47.133Z,100.00
2019-02-11T12:00:19.332Z,100.00
2019-02-11T12:03:00.330Z,100.00
2019-02-11T12:05:19.108Z,100.00
2019-02-11T12:07:49.289Z,100.00
2019-02-11T12:10:18.781Z,100.00
2019-02-11T12:12:49.495Z,99.91
2019-02-11T12:15:20.666Z,99.49
2019-02-11T12:17:49.965Z,99.11
2019-02-11T12:20:19.913Z,99.25
2019-02-11T12:22:49.475Z,99.29
2019-02-11T12:25:18.696Z,97.75
2019-02-11T12:27:48.371Z,96.61
2019-02-11T12:30:20.640Z,94.84
2019-02-11T12:32:50.042Z,94.97
2019-02-11T12:35:20.191Z,91.18
2019-02-11T12:37:49.755Z,88.92
2019-02-11T12:40:19.226Z,87.12
2019-02-11T12:42:52.400Z,87.01
2019-02-11T12:45:19.846Z,87.72
2019-02-11T12:47:49.055Z,88.51
2019-02-11T12:50:19.114Z,88.65
2019-02-11T12:52:48.470Z,88.66
2019-02-11T12:55:17.738Z,88.58
2019-02-11T12:57:47.386Z,88.83
2019-02-11T13:00:19.826Z,88.75
2019-02-11T13:02:49.974Z,88.69
2019-02-11T13:05:22.787Z,89.80
2019-02-11T13:07:48.909Z,90.84
2019-02-11T13:10:19.185Z,91.99
2019-02-11T13:12:48.745Z,93.74
2019-02-11T13:15:53.010Z,94.52
2019-02-11T13:17:48.559Z,94.09
2019-02-11T13:20:18.209Z,94.19
2019-02-11T13:22:48.509Z,94.71
2019-02-11T13:25:18.730Z,95.31
2019-02-11T13:27:48.430Z,96.48
2019-02-11T13:30:19.640Z,97.27
2019-02-11T13:32:49.256Z,97.36
2019-02-11T13:35:19.186Z,97.44
2019-02-11T13:37:48.669Z,97.50
2019-02-11T13:40:18.583Z,98.06
2019-02-11T13:42:48.545Z,98.76
2019-02-11T13:45:19.404Z,99.50
2019-02-11T13:47:54.845Z,100.00
2019-02-11T13:50:21.388Z,100.00
2019-02-11T13:52:51.027Z,100.00
2019-02-11T13:55:20.641Z,99.14
2019-02-11T13:57:50.536Z,97.70
2019-02-11T14:00:25.247Z,96.90
2019-02-11T14:02:56.503Z,97.05
2019-02-11T14:05:27.193Z,96.87
2019-02-11T14:07:56.480Z,96.78
2019-02-11T14:10:26.412Z,93.32
2019-02-11T14:12:56.639Z,90.16
2019-02-11T14:15:26.717Z,91.62
2019-02-11T14:18:10.865Z,93.04
2019-02-11T14:20:26.711Z,94.69
2019-02-11T14:22:56.022Z,95.35
2019-02-11T14:25:42.843Z,94.96
2019-02-11T14:27:55.198Z,95.53
2019-02-11T14:30:26.399Z,95.61
2019-02-11T14:32:55.924Z,94.58
2019-02-11T14:35:25.389Z,94.36
2019-02-11T14:37:54.654Z,94.75
2019-02-11T14:40:24.212Z,95.54
2019-02-11T14:42:53.685Z,96.28
2019-02-11T14:45:23.518Z,96.93
2019-02-11T14:47:53.012Z,97.21
2019-02-11T14:50:22.552Z,96.83
2019-02-11T14:52:52.209Z,97.11
2019-02-11T14:55:21.741Z,97.03
2019-02-11T14:57:50.933Z,96.91
2019-02-11T15:00:21.303Z,96.89
2019-02-11T15:02:50.952Z,96.58
2019-02-11T15:05:20.567Z,96.43
2019-02-11T15:07:50.339Z,95.26
2019-02-11T15:10:20.663Z,94.90
2019-02-11T15:12:50.524Z,94.83
2019-02-11T15:15:19.832Z,95.15
2019-02-11T15:17:49.615Z,95.77
2019-02-11T15:20:19.279Z,96.08
2019-02-11T15:22:48.745Z,96.74
2019-02-11T15:25:18.645Z,97.05
2019-02-11T15:27:48.621Z,97.42
2019-02-11T15:30:19.503Z,97.57
2019-02-11T15:32:49.127Z,97.00
2019-02-11T15:35:18.954Z,96.56
2019-02-11T15:37:48.912Z,95.11
2019-02-11T15:40:21.836Z,94.09
2019-02-11T15:42:51.017Z,92.47
2019-02-11T15:45:20.592Z,91.55
2019-02-11T15:47:50.191Z,90.98
2019-02-11T15:50:23.168Z,90.41
2019-02-11T15:52:52.368Z,89.54
2019-02-11T15:55:44.796Z,88.41
2019-02-11T15:58:14.518Z,86.76
2019-02-11T16:00:44.638Z,86.87
2019-02-11T16:03:13.972Z,86.68
2019-02-11T16:05:49.452Z,86.83
2019-02-11T16:08:13.021Z,86.85
2019-02-11T16:10:42.175Z,86.90
2019-02-11T16:13:11.402Z,87.58
2019-02-11T16:15:41.269Z,88.16
2019-02-11T16:18:10.540Z,88.64
2019-02-11T16:20:39.850Z,89.42
2019-02-11T16:23:09.691Z,90.21
2019-02-11T16:25:39.538Z,91.08
2019-02-11T16:28:08.855Z,91.97
2019-02-11T16:30:39.416Z,92.69
2019-02-11T16:33:08.837Z,93.87
2019-02-11T16:35:38.238Z,94.91
2019-02-11T16:38:08.085Z,96.09
2019-02-11T16:40:37.307Z,96.82
2019-02-11T16:43:06.520Z,97.21
2019-02-11T16:45:36.413Z,97.71
2019-02-11T16:48:06.382Z,98.22
2019-02-11T16:50:35.774Z,98.88
2019-02-11T16:53:05.456Z,99.52
2019-02-11T16:55:34.840Z,100.00
2019-02-11T16:58:04.344Z,100.00
2019-02-11T17:00:33.854Z,100.00
2019-02-11T17:03:03.351Z,100.00
2019-02-11T17:05:32.701Z,100.00
2019-02-11T17:08:02.663Z,100.00
2019-02-11T17:10:32.085Z,100.00
2019-02-11T17:13:01.352Z,100.00
2019-02-11T17:15:31.704Z,100.00
2019-02-11T17:18:01.023Z,100.00
2019-02-11T17:20:30.198Z,100.00
2019-02-11T17:22:59.745Z,100.00
2019-02-11T17:25:29.952Z,100.00
2019-02-11T17:27:59.612Z,100.00
2019-02-11T17:30:30.733Z,100.00
2019-02-11T17:33:00.027Z,100.00
2019-02-11T17:35:29.515Z,100.00
2019-02-11T17:38:05.348Z,100.00
2019-02-11T17:40:34.615Z,100.00
2019-02-11T17:43:04.109Z,100.00
2019-02-11T17:45:33.885Z,100.00
2019-02-11T17:48:03.349Z,100.00
2019-02-11T17:50:32.909Z,100.00
2019-02-11T17:53:03.605Z,100.00
2019-02-11T17:55:32.745Z,100.00
2019-02-11T17:58:02.460Z,100.00
2019-02-11T18:00:36.348Z,100.00
2019-02-11T18:03:07.028Z,100.00
2019-02-11T18:05:36.362Z,100.00
2019-02-11T18:08:07.202Z,100.00
2019-02-11T18:10:36.508Z,100.00
2019-02-11T18:13:07.104Z,100.00
2019-02-11T18:15:36.341Z,100.00
2019-02-11T18:18:05.905Z,100.00
2019-02-11T18:20:35.911Z,99.59
2019-02-11T18:23:05.710Z,99.05
2019-02-11T18:25:37.155Z,98.24
2019-02-11T18:28:07.029Z,97.78
2019-02-11T18:30:37.101Z,97.29
2019-02-11T18:33:06.974Z,97.03
2019-02-11T18:35:37.702Z,95.95
2019-02-11T18:38:07.694Z,96.06
2019-02-11T18:40:37.078Z,95.06
2019-02-11T18:43:08.274Z,94.70
2019-02-11T18:45:38.512Z,94.17
2019-02-11T18:48:07.692Z,94.09
2019-02-11T18:50:37.252Z,93.96
2019-02-11T18:53:06.575Z,94.01
2019-02-11T18:55:35.988Z,94.16
2019-02-11T18:58:06.021Z,94.33
2019-02-11T19:00:35.336Z,94.49
2019-02-11T19:03:04.718Z,94.62
2019-02-11T19:05:34.308Z,94.41
2019-02-11T19:08:03.660Z,94.47
2019-02-11T19:10:32.828Z,94.67
2019-02-11T19:13:02.667Z,94.77
2019-02-11T19:15:32.111Z,94.73
2019-02-11T19:18:01.872Z,94.87
2019-02-11T19:20:31.551Z,95.09
2019-02-11T19:23:01.832Z,95.18
2019-02-11T19:25:30.177Z,95.18
2019-02-11T19:27:59.587Z,95.17
2019-02-11T19:30:29.144Z,95.19
2019-02-11T19:32:58.394Z,95.26
2019-02-11T19:35:27.936Z,95.32
2019-02-11T19:37:57.274Z,95.32
2019-02-11T19:40:26.483Z,95.43
2019-02-11T19:42:56.244Z,95.58
2019-02-11T19:45:25.663Z,95.66
2019-02-11T19:48:06.264Z,95.62
2019-02-11T19:50:35.908Z,95.86
2019-02-11T19:53:05.116Z,96.10
2019-02-11T19:55:34.560Z,96.41
2019-02-11T19:58:04.312Z,96.44
2019-02-11T20:00:40.121Z,96.56
2019-02-11T20:03:09.853Z,96.84
2019-02-11T20:05:39.421Z,97.00
2019-02-11T20:08:08.623Z,96.59
2019-02-11T20:10:38.388Z,96.53
2019-02-11T20:13:07.552Z,95.70
2019-02-11T20:15:36.833Z,94.89
2019-02-11T20:18:06.415Z,94.34
2019-02-11T20:20:36.029Z,93.42
2019-02-11T20:23:05.428Z,93.17
2019-02-11T20:25:34.976Z,93.10
2019-02-11T20:28:04.479Z,92.45
2019-02-11T20:30:33.976Z,92.46
2019-02-11T20:33:04.559Z,92.36
2019-02-11T20:35:32.859Z,91.98
2019-02-11T20:38:02.386Z,91.43
2019-02-11T20:40:31.871Z,90.80
2019-02-11T20:43:01.575Z,90.56
2019-02-11T20:45:30.875Z,90.30
2019-02-11T20:48:00.397Z,90.02
2019-02-11T20:50:29.612Z,89.71
2019-02-11T20:52:59.099Z,89.11
2019-02-11T20:55:29.457Z,89.25
2019-02-11T20:57:58.928Z,89.04
2019-02-11T21:00:28.599Z,88.92
2019-02-11T21:02:58.233Z,89.03
2019-02-11T21:05:27.624Z,89.14
2019-02-11T21:07:57.560Z,88.87
2019-02-11T21:10:27.077Z,88.74
2019-02-11T21:12:56.267Z,88.93
2019-02-11T21:15:25.979Z,89.00
2019-02-11T21:17:55.565Z,89.30
2019-02-11T21:20:28.144Z,89.24
2019-02-11T21:22:57.684Z,89.21
2019-02-11T21:25:27.112Z,89.04
2019-02-11T21:27:56.335Z,88.72
2019-02-11T21:30:25.984Z,88.85
2019-02-11T21:32:55.134Z,88.70
2019-02-11T21:35:24.308Z,88.55
2019-02-11T21:37:53.776Z,88.29
2019-02-11T21:40:23.056Z,87.51
2019-02-11T21:42:52.309Z,87.12
2019-02-11T21:45:21.748Z,86.79
2019-02-11T21:47:50.920Z,87.06
2019-02-11T21:50:26.484Z,86.61
2019-02-11T21:52:50.428Z,86.92
2019-02-11T21:55:20.168Z,87.27
2019-02-11T21:57:49.652Z,87.04
2019-02-11T22:00:20.004Z,87.13
2019-02-11T22:02:49.564Z,87.26
2019-02-11T22:05:19.197Z,87.32
2019-02-11T22:07:49.464Z,86.80
2019-02-11T22:10:18.745Z,86.74
2019-02-11T22:12:47.952Z,86.41
2019-02-11T22:15:17.577Z,86.19
2019-02-11T22:17:46.999Z,85.39
2019-02-11T22:20:17.445Z,85.06
2019-02-11T22:22:47.009Z,85.13
2019-02-11T22:25:16.459Z,85.32
2019-02-11T22:27:46.043Z,85.76
2019-02-11T22:30:17.831Z,86.14
2019-02-11T22:32:47.317Z,86.17
2019-02-11T22:35:16.528Z,86.41
2019-02-11T22:37:46.412Z,86.49
2019-02-11T22:40:15.892Z,86.67
2019-02-11T22:42:45.056Z,86.69
2019-02-11T22:45:16.616Z,86.79
2019-02-11T22:47:46.313Z,86.60
2019-02-11T22:50:16.131Z,86.81
2019-02-11T22:52:45.617Z,86.84
2019-02-11T22:55:14.993Z,86.72
2019-02-11T22:57:44.860Z,86.02
2019-02-11T23:00:22.344Z,85.75
2019-02-11T23:02:52.431Z,85.59
2019-02-11T23:05:21.937Z,85.39
2019-02-11T23:07:51.345Z,85.42
2019-02-11T23:10:21.265Z,85.50
2019-02-11T23:12:50.492Z,85.35
2019-02-11T23:15:19.917Z,85.49
2019-02-11T23:17:49.838Z,85.58
2019-02-11T23:20:19.492Z,85.33
2019-02-11T23:22:49.012Z,85.46
2019-02-11T23:25:18.802Z,85.58
2019-02-11T23:27:48.292Z,85.60
2019-02-11T23:30:17.552Z,85.47
2019-02-11T23:32:47.620Z,85.43
2019-02-11T23:35:17.124Z,85.30
2019-02-11T23:37:46.356Z,85.23
2019-02-11T23:40:15.858Z,84.50
2019-02-11T23:42:45.588Z,84.41
2019-02-11T23:45:15.051Z,85.04
2019-02-11T23:47:44.872Z,85.41
2019-02-11T23:50:14.388Z,85.69
2019-02-11T23:52:43.620Z,85.85
2019-02-11T23:55:13.091Z,85.96
2019-02-11T23:57:42.440Z,85.75
